createdAt,value
2023-04-26T00:01:47.319Z,100.00
2023-04-26T00:04:14.208Z,100.00
2023-04-26T00:06:41.619Z,100.00
2023-04-26T00:09:08.369Z,100.00
2023-04-26T00:11:34.770Z,100.00
2023-04-26T00:14:01.231Z,100.00
2023-04-26T00:16:27.694Z,100.00
2023-04-26T00:18:54.784Z,100.00
2023-04-26T00:21:21.556Z,100.00
2023-04-26T00:23:47.960Z,100.00
2023-04-26T00:26:14.387Z,100.00
2023-04-26T00:28:40.935Z,100.00
2023-04-26T00:31:07.359Z,100.00
2023-04-26T00:33:33.826Z,100.00
2023-04-26T00:36:00.445Z,100.00
2023-04-26T00:38:26.832Z,100.00
2023-04-26T00:40:53.195Z,100.00
2023-04-26T00:43:19.648Z,100.00
2023-04-26T00:45:46.166Z,100.00
2023-04-26T00:48:13.141Z,100.00
2023-04-26T00:50:39.716Z,100.00
2023-04-26T00:53:08.076Z,100.00
2023-04-26T00:55:35.294Z,100.00
2023-04-26T00:58:01.903Z,100.00
2023-04-26T01:00:28.312Z,100.00
2023-04-26T01:02:54.921Z,100.00
2023-04-26T01:05:21.676Z,100.00
2023-04-26T01:07:48.108Z,100.00
2023-04-26T01:10:14.559Z,100.00
2023-04-26T01:12:41.429Z,100.00
2023-04-26T01:15:08.646Z,100.00
2023-04-26T01:17:35.036Z,100.00
2023-04-26T01:20:01.514Z,100.00
2023-04-26T01:22:28.547Z,100.00
2023-04-26T01:24:56.470Z,100.00
2023-04-26T01:27:23.064Z,100.00
2023-04-26T01:29:49.544Z,100.00
2023-04-26T01:32:16.199Z,100.00
2023-04-26T01:34:42.620Z,100.00
2023-04-26T01:37:09.057Z,100.00
2023-04-26T01:39:36.647Z,100.00
2023-04-26T01:42:04.677Z,100.00
2023-04-26T01:44:31.389Z,100.00
2023-04-26T01:46:57.782Z,100.00
2023-04-26T01:49:24.216Z,100.00
2023-04-26T01:51:50.604Z,100.00
2023-04-26T01:54:16.993Z,100.00
2023-04-26T01:56:43.383Z,100.00
2023-04-26T01:59:09.936Z,100.00
2023-04-26T02:01:36.419Z,100.00
2023-04-26T02:04:03.166Z,100.00
2023-04-26T02:06:29.563Z,100.00
2023-04-26T02:08:56.933Z,100.00
2023-04-26T02:11:24.478Z,100.00
2023-04-26T02:13:51.030Z,100.00
2023-04-26T02:16:17.487Z,100.00
2023-04-26T02:18:44.531Z,100.00
2023-04-26T02:21:11.862Z,100.00
2023-04-26T02:23:38.369Z,100.00
2023-04-26T02:26:05.112Z,100.00
2023-04-26T02:28:31.554Z,100.00
2023-04-26T02:30:58.436Z,100.00
2023-04-26T02:33:24.945Z,100.00
2023-04-26T02:35:51.421Z,100.00
2023-04-26T02:38:17.815Z,100.00
2023-04-26T02:40:44.240Z,100.00
2023-04-26T02:43:10.801Z,100.00
2023-04-26T02:45:43.790Z,100.00
2023-04-26T02:48:10.174Z,100.00
2023-04-26T02:50:36.787Z,100.00
2023-04-26T02:53:03.635Z,100.00
2023-04-26T02:55:30.040Z,100.00
2023-04-26T02:57:56.540Z,100.00
2023-04-26T03:00:23.567Z,100.00
2023-04-26T03:02:50.215Z,100.00
2023-04-26T03:05:16.710Z,100.00
2023-04-26T03:07:43.140Z,100.00
2023-04-26T03:10:10.070Z,100.00
2023-04-26T03:12:36.659Z,100.00
2023-04-26T03:15:03.996Z,100.00
2023-04-26T03:17:30.529Z,100.00
2023-04-26T03:19:57.134Z,100.00
2023-04-26T03:22:23.565Z,100.00
2023-04-26T03:24:50.003Z,100.00
2023-04-26T03:27:16.656Z,100.00
2023-04-26T03:29:44.256Z,100.00
2023-04-26T03:32:10.942Z,100.00
2023-04-26T03:34:37.503Z,100.00
2023-04-26T03:37:03.962Z,100.00
2023-04-26T03:39:30.378Z,100.00
2023-04-26T03:41:56.766Z,100.00
2023-04-26T03:44:23.196Z,100.00
2023-04-26T03:46:49.635Z,100.00
2023-04-26T03:49:16.154Z,100.00
2023-04-26T03:51:42.715Z,100.00
2023-04-26T03:54:09.137Z,100.00
2023-04-26T03:56:39.850Z,100.00
2023-04-26T03:59:07.132Z,100.00
2023-04-26T04:01:35.574Z,100.00
2023-04-26T04:04:03.771Z,100.00
2023-04-26T04:06:41.701Z,100.00
2023-04-26T04:09:19.779Z,100.00
2023-04-26T04:11:47.664Z,100.00
2023-04-26T04:14:15.557Z,100.00
2023-04-26T04:16:42.102Z,100.00
2023-04-26T04:19:08.880Z,100.00
2023-04-26T04:21:35.595Z,100.00
2023-04-26T04:24:02.192Z,100.00
2023-04-26T04:26:28.663Z,100.00
2023-04-26T04:28:55.384Z,100.00
2023-04-26T04:31:22.887Z,100.00
2023-04-26T04:33:49.378Z,100.00
2023-04-26T04:36:16.843Z,100.00
2023-04-26T04:38:43.577Z,100.00
2023-04-26T04:41:10.250Z,100.00
2023-04-26T04:43:37.154Z,100.00
2023-04-26T04:46:03.604Z,100.00
2023-04-26T04:48:30.213Z,100.00
2023-04-26T04:50:56.606Z,100.00
2023-04-26T04:53:22.994Z,100.00
2023-04-26T04:55:49.369Z,100.00
2023-04-26T04:58:15.771Z,100.00
2023-04-26T05:00:42.204Z,100.00
2023-04-26T05:03:09.822Z,100.00
2023-04-26T05:05:36.571Z,100.00
2023-04-26T05:08:03.044Z,100.00
2023-04-26T05:10:29.428Z,100.00
2023-04-26T05:12:55.818Z,100.00
2023-04-26T05:15:22.406Z,100.00
2023-04-26T05:17:49.261Z,100.00
2023-04-26T05:20:15.890Z,100.00
2023-04-26T05:22:42.468Z,100.00
2023-04-26T05:25:10.477Z,100.00
2023-04-26T05:27:37.715Z,100.00
2023-04-26T05:30:08.128Z,100.00
2023-04-26T05:32:34.541Z,100.00
2023-04-26T05:35:01.450Z,100.00
2023-04-26T05:37:27.893Z,100.00
2023-04-26T05:39:54.289Z,100.00
2023-04-26T05:42:20.755Z,100.00
2023-04-26T05:44:47.523Z,100.00
2023-04-26T05:47:14.341Z,100.00
2023-04-26T05:49:40.885Z,100.00
2023-04-26T05:52:07.277Z,100.00
2023-04-26T05:54:33.696Z,100.00
2023-04-26T05:57:00.196Z,100.00
2023-04-26T05:59:28.152Z,100.00
2023-04-26T06:01:54.557Z,100.00
2023-04-26T06:04:21.090Z,100.00
2023-04-26T06:06:47.568Z,100.00
2023-04-26T06:09:13.971Z,100.00
2023-04-26T06:11:40.421Z,100.00
2023-04-26T06:14:08.933Z,100.00
2023-04-26T06:16:43.639Z,100.00
2023-04-26T06:19:10.389Z,100.00
2023-04-26T06:21:36.899Z,100.00
2023-04-26T06:24:03.897Z,100.00
2023-04-26T06:26:31.489Z,100.00
2023-04-26T06:28:57.944Z,100.00
2023-04-26T06:31:24.448Z,100.00
2023-04-26T06:33:51.102Z,100.00
2023-04-26T06:36:17.843Z,100.00
2023-04-26T06:38:44.213Z,100.00
2023-04-26T06:41:10.682Z,100.00
2023-04-26T06:43:37.064Z,100.00
2023-04-26T06:46:03.889Z,100.00
2023-04-26T06:48:30.566Z,100.00
2023-04-26T06:50:57.120Z,100.00
2023-04-26T06:53:23.524Z,100.00
2023-04-26T06:55:50.021Z,100.00
2023-04-26T06:58:16.410Z,100.00
2023-04-26T07:00:42.788Z,100.00
2023-04-26T07:03:09.350Z,100.00
2023-04-26T07:05:35.833Z,100.00
2023-04-26T07:08:02.224Z,100.00
2023-04-26T07:10:28.611Z,100.00
2023-04-26T07:12:55.743Z,100.00
2023-04-26T07:15:22.513Z,100.00
2023-04-26T07:17:49.128Z,100.00
2023-04-26T07:20:19.732Z,100.00
2023-04-26T07:22:46.832Z,100.00
2023-04-26T07:25:13.424Z,100.00
2023-04-26T07:27:40.025Z,100.00
2023-04-26T07:30:07.038Z,100.00
2023-04-26T07:32:33.699Z,100.00
2023-04-26T07:35:01.607Z,100.00
2023-04-26T07:37:28.071Z,100.00
2023-04-26T07:39:54.453Z,100.00
2023-04-26T07:42:21.011Z,100.00
2023-04-26T07:44:50.534Z,100.00
2023-04-26T07:47:17.034Z,100.00
2023-04-26T07:49:44.032Z,100.00
2023-04-26T07:52:11.699Z,100.00
2023-04-26T07:54:39.930Z,100.00
2023-04-26T07:57:06.370Z,100.00
2023-04-26T07:59:32.768Z,100.00
2023-04-26T08:01:59.188Z,100.00
2023-04-26T08:04:36.630Z,100.00
2023-04-26T08:07:03.226Z,100.00
2023-04-26T08:09:30.692Z,100.00
2023-04-26T08:11:57.464Z,100.00
2023-04-26T08:14:23.937Z,100.00
2023-04-26T08:16:51.540Z,100.00
2023-04-26T08:19:18.109Z,100.00
2023-04-26T08:21:44.518Z,100.00
2023-04-26T08:24:10.964Z,100.00
2023-04-26T08:26:37.390Z,100.00
2023-04-26T08:29:03.849Z,100.00
2023-04-26T08:31:30.466Z,100.00
2023-04-26T08:33:56.942Z,100.00
2023-04-26T08:36:23.377Z,100.00
2023-04-26T08:38:49.751Z,100.00
2023-04-26T08:41:22.688Z,100.00
2023-04-26T08:43:50.034Z,100.00
2023-04-26T08:46:19.860Z,100.00
2023-04-26T08:48:54.532Z,100.00
2023-04-26T08:51:22.362Z,100.00
2023-04-26T08:53:53.026Z,100.00
2023-04-26T08:56:23.125Z,100.00
2023-04-26T08:58:50.728Z,100.00
2023-04-26T09:01:18.877Z,100.00
2023-04-26T09:03:45.685Z,100.00
2023-04-26T09:06:12.542Z,100.00
2023-04-26T09:08:41.600Z,100.00
2023-04-26T09:11:08.057Z,100.00
2023-04-26T09:13:34.489Z,100.00
2023-04-26T09:16:02.732Z,100.00
2023-04-26T09:18:33.503Z,100.00
2023-04-26T09:21:05.848Z,100.00
2023-04-26T09:23:33.001Z,97.90
2023-04-26T09:26:22.278Z,99.39
2023-04-26T09:28:48.972Z,100.00
2023-04-26T09:31:37.402Z,89.38
2023-04-26T09:34:03.919Z,95.65
2023-04-26T09:36:31.755Z,95.13
2023-04-26T09:38:58.764Z,95.45
2023-04-26T09:41:42.328Z,93.92
2023-04-26T09:44:21.254Z,92.00
2023-04-26T09:47:06.578Z,94.73
2023-04-26T09:49:42.942Z,93.18
2023-04-26T09:52:09.352Z,95.19
2023-04-26T09:54:43.343Z,92.91
2023-04-26T09:57:12.037Z,91.14
2023-04-26T09:59:49.775Z,84.09
2023-04-26T10:02:16.295Z,82.11
2023-04-26T10:04:47.735Z,84.76
2023-04-26T10:07:16.091Z,82.07
2023-04-26T10:09:43.233Z,77.51
2023-04-26T10:12:14.757Z,76.64
2023-04-26T10:14:42.468Z,79.70
2023-04-26T10:17:09.007Z,77.70
2023-04-26T10:19:37.164Z,79.08
2023-04-26T10:22:16.224Z,62.92
2023-04-26T10:24:44.366Z,73.70
2023-04-26T10:27:10.822Z,73.83
2023-04-26T10:29:55.424Z,63.06
2023-04-26T10:32:22.437Z,70.39
2023-04-26T10:35:14.234Z,65.54
2023-04-26T10:37:59.582Z,67.65
2023-04-26T10:40:39.064Z,67.72
2023-04-26T10:43:18.231Z,64.94
2023-04-26T10:45:46.212Z,61.92
2023-04-26T10:48:22.566Z,60.53
2023-04-26T10:51:01.424Z,64.73
2023-04-26T10:53:28.267Z,63.91
2023-04-26T10:55:54.823Z,60.12
2023-04-26T10:58:27.999Z,57.94
2023-04-26T11:01:08.244Z,63.89
2023-04-26T11:03:35.095Z,63.92
2023-04-26T11:06:07.099Z,64.63
2023-04-26T11:08:34.252Z,63.73
2023-04-26T11:11:03.361Z,63.00
2023-04-26T11:13:31.428Z,60.85
2023-04-26T11:16:04.186Z,61.15
2023-04-26T11:18:31.554Z,57.66
2023-04-26T11:20:58.744Z,58.95
2023-04-26T11:23:27.293Z,61.01
2023-04-26T11:25:54.992Z,58.41
2023-04-26T11:28:23.210Z,57.58
2023-04-26T11:30:50.504Z,54.27
2023-04-26T11:33:19.510Z,54.13
2023-04-26T11:35:47.744Z,55.56
2023-04-26T11:38:15.370Z,52.97
2023-04-26T11:40:42.317Z,51.47
2023-04-26T11:43:09.916Z,51.18
2023-04-26T11:45:37.918Z,51.23
2023-04-26T11:48:07.795Z,52.97
2023-04-26T11:50:38.442Z,48.25
2023-04-26T11:53:07.528Z,49.94
2023-04-26T11:55:35.103Z,51.21
2023-04-26T11:58:13.296Z,48.94
2023-04-26T12:00:58.970Z,47.17
2023-04-26T12:03:35.264Z,50.95
2023-04-26T12:06:02.236Z,46.87
2023-04-26T12:08:28.706Z,45.71
2023-04-26T12:10:59.864Z,47.00
2023-04-26T12:13:26.706Z,48.99
2023-04-26T12:15:53.136Z,50.81
2023-04-26T12:18:19.636Z,47.91
2023-04-26T12:20:46.791Z,47.40
2023-04-26T12:23:16.368Z,48.36
2023-04-26T12:25:56.618Z,47.96
2023-04-26T12:28:23.941Z,47.71
2023-04-26T12:30:51.094Z,47.94
2023-04-26T12:33:22.520Z,47.01
2023-04-26T12:35:50.247Z,41.36
2023-04-26T12:38:17.178Z,40.76
2023-04-26T12:40:46.233Z,42.63
2023-04-26T12:43:12.913Z,41.14
2023-04-26T12:45:39.579Z,42.87
2023-04-26T12:48:06.582Z,39.87
2023-04-26T12:50:33.231Z,38.81
2023-04-26T12:52:59.725Z,38.80
2023-04-26T12:55:26.716Z,39.84
2023-04-26T12:57:53.252Z,36.15
2023-04-26T13:00:21.462Z,34.64
2023-04-26T13:02:47.965Z,36.32
2023-04-26T13:05:14.540Z,37.19
2023-04-26T13:07:43.127Z,36.54
2023-04-26T13:10:12.865Z,35.27
2023-04-26T13:12:40.189Z,36.22
2023-04-26T13:15:08.029Z,35.97
2023-04-26T13:17:35.776Z,35.34
2023-04-26T13:20:02.699Z,33.82
2023-04-26T13:22:30.896Z,34.63
2023-04-26T13:24:57.498Z,34.00
2023-04-26T13:27:23.912Z,32.72
2023-04-26T13:29:51.811Z,32.05
2023-04-26T13:32:18.577Z,33.06
2023-04-26T13:34:47.715Z,31.71
2023-04-26T13:37:14.531Z,30.42
2023-04-26T13:39:40.922Z,30.99
2023-04-26T13:42:07.429Z,31.30
2023-04-26T13:44:34.361Z,31.33
2023-04-26T13:47:00.936Z,33.23
2023-04-26T13:49:27.421Z,32.98
2023-04-26T13:51:54.287Z,32.82
2023-04-26T13:54:25.819Z,32.40
2023-04-26T13:56:53.587Z,30.19
2023-04-26T13:59:20.436Z,32.71
2023-04-26T14:01:47.081Z,32.93
2023-04-26T14:04:13.763Z,33.29
2023-04-26T14:06:40.683Z,31.20
2023-04-26T14:09:07.262Z,32.84
2023-04-26T14:11:33.895Z,33.27
2023-04-26T14:14:00.745Z,33.19
2023-04-26T14:16:27.461Z,33.25
2023-04-26T14:18:54.296Z,33.96
2023-04-26T14:21:21.274Z,33.46
2023-04-26T14:23:48.806Z,33.92
2023-04-26T14:26:16.622Z,34.46
2023-04-26T14:28:43.229Z,34.67
2023-04-26T14:31:09.991Z,35.30
2023-04-26T14:33:36.845Z,33.26
2023-04-26T14:36:03.900Z,33.01
2023-04-26T14:38:33.795Z,33.43
2023-04-26T14:41:00.597Z,34.07
2023-04-26T14:43:27.115Z,33.22
2023-04-26T14:45:53.669Z,32.63
2023-04-26T14:48:20.721Z,32.85
2023-04-26T14:50:48.119Z,33.44
2023-04-26T14:53:15.146Z,32.51
2023-04-26T14:55:42.076Z,32.34
2023-04-26T14:58:08.754Z,32.96
2023-04-26T15:00:36.371Z,33.46
2023-04-26T15:03:03.838Z,33.34
2023-04-26T15:05:30.482Z,33.91
2023-04-26T15:07:57.192Z,34.48
2023-04-26T15:10:23.763Z,34.69
2023-04-26T15:12:51.722Z,34.59
2023-04-26T15:15:18.686Z,34.17
2023-04-26T15:17:46.035Z,33.99
2023-04-26T15:20:13.298Z,34.55
2023-04-26T15:22:40.270Z,35.07
2023-04-26T15:25:07.436Z,34.52
2023-04-26T15:27:38.559Z,33.31
2023-04-26T15:30:17.879Z,33.18
2023-04-26T15:32:55.880Z,32.32
2023-04-26T15:35:31.292Z,33.72
2023-04-26T15:38:08.490Z,34.20
2023-04-26T15:40:39.829Z,33.48
2023-04-26T15:43:14.415Z,33.69
2023-04-26T15:45:56.687Z,34.15
2023-04-26T15:48:27.441Z,33.21
2023-04-26T15:50:56.439Z,31.86
2023-04-26T15:53:23.974Z,34.16
2023-04-26T15:55:51.097Z,33.90
2023-04-26T15:58:17.731Z,34.03
2023-04-26T16:00:44.223Z,33.13
2023-04-26T16:03:10.828Z,33.17
2023-04-26T16:05:37.325Z,33.17
2023-04-26T16:08:03.923Z,32.40
2023-04-26T16:10:30.520Z,32.55
2023-04-26T16:12:57.284Z,32.76
2023-04-26T16:15:23.771Z,33.03
2023-04-26T16:17:50.261Z,32.45
2023-04-26T16:20:16.667Z,32.97
2023-04-26T16:22:44.668Z,32.54
2023-04-26T16:25:11.641Z,32.97
2023-04-26T16:27:38.098Z,33.20
2023-04-26T16:30:05.527Z,34.13
2023-04-26T16:32:32.243Z,34.21
2023-04-26T16:34:58.737Z,34.96
2023-04-26T16:37:25.182Z,35.79
2023-04-26T16:39:55.638Z,35.87
2023-04-26T16:42:22.185Z,35.81
2023-04-26T16:44:48.746Z,35.82
2023-04-26T16:47:15.293Z,35.52
2023-04-26T16:49:41.695Z,35.82
2023-04-26T16:52:08.496Z,35.88
2023-04-26T16:54:34.950Z,35.98
2023-04-26T16:57:03.570Z,36.31
2023-04-26T16:59:29.983Z,35.75
2023-04-26T17:01:56.464Z,36.17
2023-04-26T17:04:23.402Z,35.57
2023-04-26T17:06:50.082Z,35.76
2023-04-26T17:09:16.480Z,35.56
2023-04-26T17:11:44.311Z,36.18
2023-04-26T17:14:11.122Z,36.22
2023-04-26T17:16:37.751Z,35.63
2023-04-26T17:19:04.271Z,35.70
2023-04-26T17:21:30.676Z,36.96
2023-04-26T17:23:57.132Z,37.69
2023-04-26T17:26:23.609Z,38.33
2023-04-26T17:28:51.193Z,38.88
2023-04-26T17:31:17.776Z,39.57
2023-04-26T17:33:44.298Z,40.48
2023-04-26T17:36:10.724Z,40.63
2023-04-26T17:38:37.098Z,41.22
2023-04-26T17:41:03.599Z,41.56
2023-04-26T17:43:30.089Z,42.10
2023-04-26T17:45:56.621Z,42.51
2023-04-26T17:48:23.046Z,42.50
2023-04-26T17:50:50.829Z,42.80
2023-04-26T17:53:17.630Z,43.27
2023-04-26T17:55:44.940Z,43.23
2023-04-26T17:58:11.520Z,43.62
2023-04-26T18:00:37.986Z,44.03
2023-04-26T18:03:07.477Z,44.35
2023-04-26T18:05:33.978Z,44.17
2023-04-26T18:08:00.499Z,44.73
2023-04-26T18:10:26.963Z,45.05
2023-04-26T18:12:53.335Z,45.46
2023-04-26T18:15:19.885Z,45.82
2023-04-26T18:17:46.512Z,46.42
2023-04-26T18:20:13.347Z,46.71
2023-04-26T18:22:40.368Z,47.79
2023-04-26T18:25:07.353Z,48.48
2023-04-26T18:27:33.807Z,49.04
2023-04-26T18:30:00.670Z,49.43
2023-04-26T18:32:27.116Z,50.23
2023-04-26T18:34:53.528Z,51.26
2023-04-26T18:37:20.161Z,52.39
2023-04-26T18:39:46.674Z,52.96
2023-04-26T18:42:13.157Z,52.11
2023-04-26T18:44:39.582Z,52.72
2023-04-26T18:47:06.094Z,52.91
2023-04-26T18:49:32.602Z,53.43
2023-04-26T18:51:59.175Z,54.77
2023-04-26T18:54:26.272Z,54.77
2023-04-26T18:56:52.662Z,55.23
2023-04-26T18:59:19.131Z,55.79
2023-04-26T19:01:45.605Z,55.96
2023-04-26T19:04:12.348Z,55.84
2023-04-26T19:06:41.378Z,55.97
2023-04-26T19:09:11.443Z,56.64
2023-04-26T19:11:38.079Z,56.64
2023-04-26T19:14:04.500Z,56.61
2023-04-26T19:16:31.130Z,56.43
2023-04-26T19:18:58.142Z,56.77
2023-04-26T19:21:24.624Z,56.10
2023-04-26T19:23:51.166Z,55.72
2023-04-26T19:26:17.884Z,56.03
2023-04-26T19:28:44.454Z,57.08
2023-04-26T19:31:10.969Z,57.13
2023-04-26T19:33:38.136Z,57.58
2023-04-26T19:36:04.683Z,58.55
2023-04-26T19:38:31.246Z,59.83
2023-04-26T19:40:57.642Z,60.64
2023-04-26T19:43:24.228Z,60.49
2023-04-26T19:45:50.606Z,60.03
2023-04-26T19:48:17.103Z,60.22
2023-04-26T19:50:45.103Z,61.00
2023-04-26T19:53:13.403Z,62.28
2023-04-26T19:55:41.327Z,63.19
2023-04-26T19:58:08.183Z,63.47
2023-04-26T20:00:38.826Z,62.80
2023-04-26T20:03:05.849Z,62.74
2023-04-26T20:05:33.450Z,63.12
2023-04-26T20:07:59.993Z,63.49
2023-04-26T20:10:26.516Z,63.56
2023-04-26T20:12:53.305Z,63.39
2023-04-26T20:15:20.106Z,64.05
2023-04-26T20:17:46.928Z,65.53
2023-04-26T20:20:14.353Z,66.65
2023-04-26T20:22:41.593Z,66.48
2023-04-26T20:25:08.374Z,65.42
2023-04-26T20:27:35.584Z,64.88
2023-04-26T20:30:03.644Z,64.96
2023-04-26T20:32:30.355Z,65.25
2023-04-26T20:34:57.412Z,66.26
2023-04-26T20:37:25.159Z,66.55
2023-04-26T20:39:52.246Z,67.54
2023-04-26T20:42:18.908Z,68.12
2023-04-26T20:44:45.725Z,68.08
2023-04-26T20:47:12.180Z,67.81
2023-04-26T20:49:39.070Z,67.82
2023-04-26T20:52:05.811Z,68.27
2023-04-26T20:54:32.345Z,69.20
2023-04-26T20:56:59.220Z,69.68
2023-04-26T20:59:25.978Z,69.84
2023-04-26T21:01:53.790Z,71.17
2023-04-26T21:04:20.863Z,71.70
2023-04-26T21:06:47.897Z,72.26
2023-04-26T21:09:14.795Z,72.42
2023-04-26T21:11:42.568Z,72.44
2023-04-26T21:14:09.332Z,72.71
2023-04-26T21:16:36.023Z,73.46
2023-04-26T21:19:03.639Z,73.98
2023-04-26T21:21:30.246Z,73.46
2023-04-26T21:23:56.673Z,73.20
2023-04-26T21:26:23.410Z,73.21
2023-04-26T21:28:49.934Z,73.65
2023-04-26T21:31:16.840Z,74.24
2023-04-26T21:33:43.337Z,74.13
2023-04-26T21:36:10.610Z,73.96
2023-04-26T21:38:37.064Z,74.59
2023-04-26T21:41:04.193Z,74.75
2023-04-26T21:43:30.574Z,74.28
2023-04-26T21:45:58.358Z,75.98
2023-04-26T21:48:26.337Z,78.26
2023-04-26T21:50:53.343Z,80.00
2023-04-26T21:53:20.068Z,79.56
2023-04-26T21:55:52.757Z,79.39
2023-04-26T21:58:23.177Z,80.74
2023-04-26T22:00:50.545Z,82.03
2023-04-26T22:03:17.741Z,81.83
2023-04-26T22:05:45.160Z,81.79
2023-04-26T22:08:11.683Z,81.39
2023-04-26T22:10:38.746Z,81.77
2023-04-26T22:13:05.377Z,82.80
2023-04-26T22:15:31.912Z,82.29
2023-04-26T22:17:58.405Z,81.53
2023-04-26T22:20:24.796Z,81.98
2023-04-26T22:22:51.243Z,82.49
2023-04-26T22:25:17.713Z,82.40
2023-04-26T22:27:44.099Z,83.47
2023-04-26T22:30:24.050Z,85.11
2023-04-26T22:32:55.474Z,85.35
2023-04-26T22:35:23.468Z,85.27
2023-04-26T22:37:50.164Z,85.21
2023-04-26T22:40:16.918Z,85.68
2023-04-26T22:42:43.621Z,85.71
2023-04-26T22:45:11.125Z,85.85
2023-04-26T22:47:37.923Z,86.47
2023-04-26T22:50:05.574Z,87.31
2023-04-26T22:52:32.419Z,87.54
2023-04-26T22:54:59.962Z,87.54
2023-04-26T22:57:26.896Z,87.84
2023-04-26T22:59:53.287Z,88.03
2023-04-26T23:02:20.064Z,88.72
2023-04-26T23:04:46.717Z,88.69
2023-04-26T23:07:13.109Z,88.69
2023-04-26T23:09:39.667Z,89.64
2023-04-26T23:12:06.162Z,89.66
2023-04-26T23:14:32.586Z,89.92
2023-04-26T23:16:59.149Z,89.51
2023-04-26T23:19:26.346Z,89.21
2023-04-26T23:21:52.851Z,88.80
2023-04-26T23:24:19.325Z,88.39
2023-04-26T23:26:45.967Z,88.57
2023-04-26T23:29:13.110Z,89.31
2023-04-26T23:31:39.801Z,89.59
2023-04-26T23:34:06.207Z,90.78
2023-04-26T23:36:33.388Z,90.99
2023-04-26T23:38:59.879Z,90.95
2023-04-26T23:41:26.300Z,90.77
2023-04-26T23:43:52.736Z,91.34
2023-04-26T23:46:19.250Z,93.05
2023-04-26T23:48:45.759Z,94.94
2023-04-26T23:51:12.238Z,95.50
2023-04-26T23:53:39.636Z,97.05
2023-04-26T23:56:06.737Z,98.90
2023-04-26T23:58:33.278Z,100.00
